Time;durP1;ratioP1;P1;durP2;ratioP2;P2;SDS_P1;SDS_P2;PMS_P1;PMS_P2;Temp;Humidity;BMP_temperature;BMP_pressure;BME280_temperature;BME280_humidity;BME280_pressure;Samples;Min_cycle;Max_cycle;Signal;HPM_P1;HPM_P2
2021/12/05 00:20:09;;;;;;;7.10;4.70;;;;;;;2.21;100.00;98987.55;104571;1323;62618;-78
2021/12/05 00:22:42;;;;;;;11.40;6.00;;;;;;;2.24;100.00;98991.93;104126;1327;61705;-76
2021/12/05 00:25:13;;;;;;;10.20;6.30;;;;;;;2.27;100.00;99003.89;104549;1323;74979;-76
2021/12/05 00:27:46;;;;;;;8.30;5.00;;;;;;;2.30;100.00;99014.88;104530;1327;71493;-76
2021/12/05 00:30:45;;;;;;;8.30;5.30;;;;;;;2.34;100.00;99028.77;104595;1329;74297;-78
2021/12/05 00:36:57;;;;;;;15.10;7.80;;;;;;;2.37;100.00;99046.08;104015;1325;60604;-76
2021/12/05 01:03:21;;;;;;;28.50;13.20;;;;;;;2.53;100.00;99072.19;104567;1324;59255;-78
2021/12/05 01:06:32;;;;;;;24.70;11.90;;;;;;;2.57;100.00;99072.79;104519;1325;75062;-76
2021/12/05 01:16:47;;;;;;;7.10;4.80;;;;;;;2.72;100.00;99084.04;103460;1338;61637;-75
2021/12/05 01:19:17;;;;;;;11.10;6.20;;;;;;;2.76;100.00;99083.52;104424;1331;75791;-75
2021/12/05 01:21:47;;;;;;;9.50;4.80;;;;;;;2.78;100.00;99091.48;104553;1328;71454;-78
2021/12/05 01:32:26;;;;;;;12.50;7.00;;;;;;;2.86;100.00;99090.59;104407;1331;75271;-78
2021/12/05 01:35:27;;;;;;;11.20;6.40;;;;;;;2.87;100.00;99091.70;103947;1324;72411;-78
2021/12/05 01:40:46;;;;;;;11.90;6.40;;;;;;;2.91;100.00;99108.64;104354;1330;63790;-78
2021/12/05 01:46:16;;;;;;;12.90;6.30;;;;;;;2.94;100.00;99108.98;104560;1319;76156;-79
2021/12/05 01:49:12;;;;;;;11.20;6.40;;;;;;;2.94;100.00;99111.92;103894;1331;71537;-78
2021/12/05 01:54:52;;;;;;;7.40;4.20;;;;;;;2.99;100.00;99101.26;103796;1329;62060;-75
2021/12/05 02:29:22;;;;;;;13.30;6.90;;;;;;;3.21;100.00;99092.90;103770;1328;71132;-78
2021/12/05 02:33:32;;;;;;;13.00;6.70;;;;;;;3.36;100.00;99117.83;104221;1324;72376;-76
2021/12/05 02:39:06;;;;;;;9.70;4.60;;;;;;;3.43;100.00;99119.58;104507;1322;60336;-75
2021/12/05 02:41:37;;;;;;;10.70;6.20;;;;;;;3.47;100.00;99118.92;104227;1323;73973;-74
2021/12/05 02:44:20;;;;;;;12.70;6.80;;;;;;;3.50;100.00;99114.61;103695;1329;71463;-76
2021/12/05 02:46:52;;;;;;;13.50;7.20;;;;;;;3.52;100.00;99111.76;104072;1328;73143;-77
2021/12/05 02:49:19;;;;;;;9.00;5.40;;;;;;;3.53;100.00;99110.26;104521;1321;61546;-74
2021/12/05 02:51:53;;;;;;;11.90;6.60;;;;;;;3.54;100.00;99113.34;104537;1325;61641;-75
2021/12/05 02:54:22;;;;;;;18.00;6.70;;;;;;;3.55;100.00;99117.23;104533;1324;76165;-74
2021/12/05 02:56:51;;;;;;;13.90;8.20;;;;;;;3.56;100.00;99120.73;104240;1327;70903;-75
2021/12/05 03:02:09;;;;;;;15.10;7.50;;;;;;;3.61;100.00;99128.92;104500;1322;61821;-76
2021/12/05 03:04:40;;;;;;;15.00;7.80;;;;;;;3.64;99.99;99129.82;104536;1322;60641;-76
2021/12/05 03:07:09;;;;;;;17.90;8.10;;;;;;;3.65;99.96;99135.09;104391;1322;75838;-74
2021/12/05 03:09:38;;;;;;;13.70;7.40;;;;;;;3.67;99.91;99140.04;104523;1319;71252;-76
2021/12/05 03:12:07;;;;;;;14.30;9.10;;;;;;;3.67;99.90;99143.84;104503;1319;73228;-74
2021/12/05 03:14:34;;;;;;;12.50;7.90;;;;;;;3.64;99.53;99146.20;104512;1321;61004;-73
2021/12/05 03:17:01;;;;;;;12.90;8.50;;;;;;;3.67;99.46;99147.30;104536;1322;61681;-74
2021/12/05 03:19:27;;;;;;;15.40;9.10;;;;;;;3.68;99.41;99150.33;104482;1321;76709;-74
2021/12/05 03:21:54;;;;;;;14.40;8.80;;;;;;;3.70;99.48;99155.95;104066;1324;59288;-76
2021/12/05 03:24:23;;;;;;;22.30;9.30;;;;;;;3.71;99.39;99162.64;104477;1324;72914;-74
2021/12/05 03:26:52;;;;;;;14.60;8.30;;;;;;;3.72;99.46;99166.41;104317;1321;63278;-76
2021/12/05 03:29:21;;;;;;;18.90;9.00;;;;;;;3.73;99.30;99170.66;104542;1324;60325;-76
2021/12/05 03:31:49;;;;;;;24.10;8.50;;;;;;;3.74;99.10;99174.71;104504;1322;76210;-76
2021/12/05 03:34:19;;;;;;;13.40;7.70;;;;;;;3.74;99.18;99179.80;104546;1324;71281;-74
2021/12/05 03:36:48;;;;;;;16.70;10.00;;;;;;;3.73;99.21;99180.44;103444;1327;73859;-74
2021/12/05 03:39:16;;;;;;;21.00;11.20;;;;;;;3.73;99.17;99185.69;104422;1322;61486;-75
2021/12/05 03:41:44;;;;;;;20.60;10.30;;;;;;;3.73;98.89;99185.20;104395;1325;60414;-74
2021/12/05 03:44:13;;;;;;;16.70;9.60;;;;;;;3.73;98.90;99186.93;104512;1325;76131;-74
2021/12/05 03:46:40;;;;;;;20.00;10.00;;;;;;;3.72;98.86;99193.16;103914;1323;72389;-77
2021/12/05 03:49:10;;;;;;;20.10;9.60;;;;;;;3.72;98.55;99194.71;104550;1324;72901;-77
2021/12/05 03:51:41;;;;;;;15.70;10.20;;;;;;;3.73;98.65;99200.70;104510;1324;62557;-75
2021/12/05 03:54:08;;;;;;;20.30;10.40;;;;;;;3.76;98.79;99209.20;104233;1324;59597;-74
2021/12/05 03:56:38;;;;;;;16.10;10.10;;;;;;;3.76;98.56;99208.13;104543;1323;74654;-77
2021/12/05 03:59:07;;;;;;;17.90;10.70;;;;;;;3.75;98.64;99213.97;104505;1324;70562;-77
2021/12/05 04:01:35;;;;;;;18.30;8.80;;;;;;;3.76;98.46;99213.68;104516;1324;72949;-78
2021/12/05 04:04:07;;;;;;;20.60;9.50;;;;;;;3.77;98.56;99221.12;104367;1324;61399;-77
2021/12/05 04:06:34;;;;;;;19.40;8.40;;;;;;;3.77;98.66;99228.59;104562;1322;60652;-76
2021/12/05 04:09:04;;;;;;;11.40;7.10;;;;;;;3.77;98.47;99229.11;103464;1330;73928;-77
2021/12/05 04:11:41;;;;;;;18.40;11.10;;;;;;;3.77;98.51;99231.48;103782;1322;71468;-77
2021/12/05 04:14:13;;;;;;;28.20;11.50;;;;;;;3.77;98.64;99234.36;103966;1323;74063;-75
2021/12/05 04:16:44;;;;;;;23.00;11.50;;;;;;;3.78;98.55;99237.25;104396;1322;62085;-75
2021/12/05 04:19:11;;;;;;;21.70;9.80;;;;;;;3.78;98.63;99240.55;104496;1319;60379;-75
2021/12/05 04:21:39;;;;;;;23.00;10.70;;;;;;;3.79;98.59;99240.25;104320;1323;73671;-75
2021/12/05 04:24:08;;;;;;;21.40;10.10;;;;;;;3.80;98.34;99244.05;104515;1324;72607;-74
2021/12/05 04:26:35;;;;;;;18.20;10.40;;;;;;;3.80;98.46;99243.30;104489;1321;72922;-74
2021/12/05 04:29:04;;;;;;;14.70;8.90;;;;;;;3.80;98.27;99245.42;104394;1322;61627;-74
2021/12/05 04:31:31;;;;;;;19.60;9.30;;;;;;;3.80;98.05;99243.04;104523;1321;60620;-74
2021/12/05 04:34:00;;;;;;;19.80;9.40;;;;;;;3.79;98.26;99245.14;103975;1324;76138;-77
2021/12/05 04:36:26;;;;;;;16.70;9.40;;;;;;;3.79;97.93;99251.18;104514;1323;71572;-75
2021/12/05 04:38:53;;;;;;;18.50;9.00;;;;;;;3.78;98.01;99254.36;104600;1324;71929;-74
2021/12/05 04:41:20;;;;;;;14.60;7.90;;;;;;;3.78;97.86;99252.69;104581;1324;62828;-74
2021/12/05 04:43:47;;;;;;;17.90;9.10;;;;;;;3.78;97.87;99253.34;104587;1321;60810;-75
2021/12/05 04:46:19;;;;;;;13.30;6.90;;;;;;;3.78;97.51;99258.13;104594;1322;75076;-74
2021/12/05 04:48:49;;;;;;;14.20;7.20;;;;;;;3.77;97.43;99260.14;103764;1328;71458;-75
2021/12/05 04:51:21;;;;;;;10.20;7.30;;;;;;;3.76;97.42;99263.02;104565;1321;72929;-74
2021/12/05 04:53:48;;;;;;;15.00;7.60;;;;;;;3.75;97.20;99266.59;104557;1321;63754;-77
2021/12/05 04:56:16;;;;;;;12.00;5.90;;;;;;;3.75;97.18;99268.37;104516;1324;60691;-77
2021/12/05 04:58:42;;;;;;;14.20;7.70;;;;;;;3.73;97.19;99271.25;103503;1331;75988;-77
2021/12/05 05:01:09;;;;;;;15.50;7.70;;;;;;;3.70;97.03;99271.34;104550;1324;71513;-77
2021/12/05 05:03:37;;;;;;;12.10;5.80;;;;;;;3.67;96.94;99275.13;103811;1325;72898;-77
2021/12/05 05:06:14;;;;;;;15.50;7.20;;;;;;;3.65;96.94;99273.38;103482;1325;63267;-77
2021/12/05 05:08:47;;;;;;;13.20;6.30;;;;;;;3.63;96.78;99276.98;104576;1324;60612;-77
2021/12/05 05:11:19;;;;;;;12.00;5.40;;;;;;;3.62;96.59;99272.15;103835;1327;75919;-77
2021/12/05 05:13:50;;;;;;;11.60;6.20;;;;;;;3.62;96.66;99276.34;104348;1324;71503;-74
2021/12/05 05:16:26;;;;;;;14.70;5.40;;;;;;;3.61;96.32;99278.44;104542;1324;73934;-77
2021/12/05 05:18:56;;;;;;;9.30;4.60;;;;;;;3.59;96.54;99278.09;104598;1324;60899;-74
2021/12/05 05:24:21;;;;;;;16.20;5.70;;;;;;;3.56;95.99;99287.39;104117;1324;77126;-74
2021/12/05 05:27:12;;;;;;;12.30;5.40;;;;;;;3.55;95.81;99287.06;104298;1327;72620;-77
2021/12/05 05:46:05;;;;;;;8.10;4.20;;;;;;;3.48;94.59;99305.88;104418;1320;63408;-76
2021/12/05 05:48:40;;;;;;;11.90;5.00;;;;;;;3.44;94.60;99307.67;104415;1322;60533;-77
2021/12/05 05:51:09;;;;;;;12.50;4.60;;;;;;;3.38;94.59;99307.08;103813;1326;74982;-77
2021/12/05 05:53:37;;;;;;;15.30;4.40;;;;;;;3.35;94.72;99307.23;104403;1324;72807;-75
2021/12/05 05:56:06;;;;;;;11.10;5.00;;;;;;;3.31;94.44;99308.61;103553;1324;72947;-77
2021/12/05 05:58:49;;;;;;;11.30;5.40;;;;;;;3.27;94.42;99312.11;103764;1324;62715;-77
2021/12/05 06:01:22;;;;;;;11.70;4.10;;;;;;;3.22;94.39;99313.41;104295;1323;62198;-77
2021/12/05 06:03:49;;;;;;;11.20;5.00;;;;;;;3.19;94.61;99319.17;104234;1324;75608;-77
2021/12/05 06:06:17;;;;;;;16.00;4.30;;;;;;;3.18;94.46;99320.73;104267;1324;69796;-77
2021/12/05 06:08:44;;;;;;;9.50;4.20;;;;;;;3.17;94.46;99320.98;104256;1327;73962;-77
2021/12/05 06:11:14;;;;;;;12.00;3.50;;;;;;;3.16;94.18;99319.02;104318;1322;62332;-77
2021/12/05 06:13:41;;;;;;;11.40;3.80;;;;;;;3.15;94.56;99318.23;104281;1324;60698;-77
2021/12/05 06:16:11;;;;;;;9.80;4.80;;;;;;;3.14;94.55;99320.79;104187;1327;75174;-77
2021/12/05 06:18:38;;;;;;;7.00;3.80;;;;;;;3.12;94.54;99319.75;104244;1327;71154;-75
2021/12/05 06:21:06;;;;;;;9.80;3.90;;;;;;;3.10;94.53;99319.48;104165;1327;73145;-77
2021/12/05 06:23:33;;;;;;;10.20;4.10;;;;;;;3.08;94.60;99322.29;103345;1325;61445;-77
2021/12/05 06:26:01;;;;;;;11.50;4.10;;;;;;;3.06;94.60;99322.83;104306;1326;59396;-77
2021/12/05 06:28:41;;;;;;;14.00;4.80;;;;;;;3.05;94.58;99323.70;104311;1325;75929;-77
2021/12/05 06:42:31;;;;;;;9.50;3.90;;;;;;;3.02;94.69;99335.31;104257;1324;76059;-78
2021/12/05 06:47:40;;;;;;;10.80;4.20;;;;;;;3.04;94.77;99347.38;104240;1326;73987;-76
2021/12/05 06:50:07;;;;;;;10.60;3.90;;;;;;;3.04;94.55;99350.77;104293;1324;59174;-77
2021/12/05 06:52:42;;;;;;;11.80;3.80;;;;;;;3.07;94.86;99355.57;104322;1323;60307;-75
2021/12/05 06:55:10;;;;;;;7.40;3.90;;;;;;;3.12;94.95;99356.75;104257;1327;76167;-75
2021/12/05 06:57:36;;;;;;;12.50;3.90;;;;;;;3.17;95.14;99358.22;104257;1326;73354;-77
2021/12/05 07:00:07;;;;;;;8.60;4.00;;;;;;;3.20;94.92;99362.77;104328;1323;74109;-76
2021/12/05 07:02:34;;;;;;;11.50;4.30;;;;;;;3.22;94.33;99362.35;104309;1326;60159;-77
2021/12/05 07:07:33;;;;;;;10.80;3.80;;;;;;;3.25;94.36;99372.58;104303;1324;76263;-76
2021/12/05 07:10:01;;;;;;;8.40;3.60;;;;;;;3.27;94.05;99377.44;104321;1324;70448;-76
2021/12/05 07:13:03;;;;;;;7.60;2.60;;;;;;;3.29;93.85;99383.73;104206;1326;74026;-76
2021/12/05 07:21:14;;;;;;;;;;;;;;;3.39;93.95;99402.75;104305;1324;76009;-77
2021/12/05 07:23:56;;;;;;;13.20;3.80;;;;;;;3.44;93.88;99406.08;104336;1324;71820;-78
2021/12/05 07:42:42;;;;;;;14.40;6.40;;;;;;;3.34;92.97;99440.73;104044;1321;394027;-77
2021/12/05 07:45:15;;;;;;;15.90;5.00;;;;;;;3.31;93.13;99448.66;104319;1320;61661;-76
2021/12/05 07:47:45;;;;;;;10.70;4.60;;;;;;;3.28;93.34;99452.83;104258;1327;75146;-76
2021/12/05 07:50:13;;;;;;;10.40;4.00;;;;;;;3.28;93.41;99455.08;103475;1323;71413;-76
2021/12/05 07:52:44;;;;;;;14.40;4.20;;;;;;;3.33;93.72;99454.44;104268;1322;74453;-77
2021/12/05 07:55:24;;;;;;;14.70;4.30;;;;;;;3.37;93.91;99457.33;104154;1327;62290;-76
2021/12/05 08:00:44;;;;;;;11.10;4.50;;;;;;;3.51;94.25;99466.23;104307;1323;75200;-76
2021/12/05 08:16:51;;;;;;;13.20;5.80;;;;;;;3.48;93.24;99485.69;104305;1326;72609;-75
2021/12/05 08:19:18;;;;;;;12.00;4.40;;;;;;;3.49;93.57;99492.65;104318;1323;72912;-74
2021/12/05 08:21:47;;;;;;;7.70;4.30;;;;;;;3.50;93.57;99497.70;104270;1324;61813;-75
2021/12/05 08:24:14;;;;;;;11.30;4.30;;;;;;;3.54;93.64;99502.23;104324;1323;60721;-75
2021/12/05 08:26:42;;;;;;;9.40;3.50;;;;;;;3.57;93.51;99508.56;104326;1324;59249;-77
2021/12/05 08:29:16;;;;;;;14.20;3.80;;;;;;;3.59;93.45;99512.67;104280;1311;71623;-75
2021/12/05 08:37:30;;;;;;;7.50;3.10;;;;;;;3.71;93.32;99522.11;104375;1324;61547;-75
2021/12/05 08:42:57;;;;;;;9.60;3.30;;;;;;;3.80;93.04;99537.45;104004;1326;72504;-75
2021/12/05 09:23:46;;;;;;;5.30;2.90;;;;;;;4.53;91.97;99590.95;104486;1324;59383;-75
2021/12/05 09:40:05;;;;;;;7.50;2.50;;;;;;;4.78;89.60;99612.92;104372;1328;60493;-77
2021/12/05 10:07:31;;;;;;;5.50;1.90;;;;;;;5.14;87.72;99648.09;103426;1333;59572;-76
2021/12/05 10:10:12;;;;;;;8.30;2.40;;;;;;;5.21;86.99;99649.86;104543;1323;74665;-79
2021/12/05 10:36:02;;;;;;;5.20;1.60;;;;;;;5.45;85.04;99660.58;104485;1320;60412;-79
2021/12/05 10:38:13;;;;;;;4.20;1.30;;;;;;;5.52;84.02;99658.23;103631;1327;77676;-77
2021/12/05 10:40:54;;;;;;;4.50;1.50;;;;;;;5.59;83.43;99660.81;104561;1322;72475;-77
2021/12/05 10:43:24;;;;;;;5.10;1.50;;;;;;;5.60;81.07;99656.30;104360;1324;74071;-77
2021/12/05 10:45:55;;;;;;;9.90;1.60;;;;;;;5.63;81.36;99661.33;104538;1322;59313;-79
2021/12/05 10:48:24;;;;;;;4.00;1.50;;;;;;;5.71;81.60;99659.83;104524;1322;61361;-79
2021/12/05 10:50:58;;;;;;;5.60;1.60;;;;;;;5.84;82.08;99656.30;104682;1324;74808;-76
2021/12/05 10:53:38;;;;;;;6.60;1.60;;;;;;;5.96;80.82;99656.89;104353;1326;71750;-76
2021/12/05 10:56:13;;;;;;;9.00;1.70;;;;;;;6.05;79.95;99660.34;104624;1323;72917;-75
2021/12/05 10:59:09;;;;;;;3.50;1.10;;;;;;;6.11;79.18;99661.36;103979;1323;61178;-77
2021/12/05 11:01:43;;;;;;;4.00;1.20;;;;;;;6.18;79.05;99666.94;104503;1324;60290;-77
2021/12/05 11:04:17;;;;;;;4.40;1.20;;;;;;;6.26;79.34;99672.23;104413;1323;75055;-75
2021/12/05 11:06:53;;;;;;;8.80;1.50;;;;;;;6.33;77.55;99677.92;104462;1324;70270;-77
2021/12/05 11:09:30;;;;;;;3.30;1.10;;;;;;;6.33;76.71;99675.20;104540;1323;72944;-78
2021/12/05 11:12:14;;;;;;;5.00;1.20;;;;;;;6.46;77.95;99667.80;103410;1333;61428;-78
2021/12/05 11:14:47;;;;;;;7.40;1.70;;;;;;;6.67;77.47;99668.58;104556;1323;60607;-78
2021/12/05 11:17:25;;;;;;;4.70;1.20;;;;;;;6.81;76.63;99671.05;104271;1323;75140;-78
2021/12/05 11:19:59;;;;;;;6.80;1.50;;;;;;;6.84;76.65;99675.11;104479;1324;72076;-78
2021/12/05 11:22:33;;;;;;;8.20;1.50;;;;;;;6.81;74.85;99679.91;104029;1322;74052;-75
2021/12/05 11:25:10;;;;;;;4.50;1.20;;;;;;;6.72;74.78;99683.16;104579;1323;60810;-75
2021/12/05 11:27:49;;;;;;;6.80;1.40;;;;;;;6.66;76.02;99681.55;104509;1323;60600;-76
2021/12/05 11:30:34;;;;;;;1.60;0.90;;;;;;;6.63;76.41;99684.57;104377;1324;75225;-75
2021/12/05 11:33:19;;;;;;;4.00;1.10;;;;;;;6.56;75.53;99685.83;104149;1322;72456;-79
2021/12/05 11:35:56;;;;;;;5.60;1.30;;;;;;;6.52;75.80;99688.36;104348;1320;74462;-76
2021/12/05 11:38:29;;;;;;;2.80;0.90;;;;;;;6.50;75.90;99685.43;104523;1323;61776;-77
2021/12/05 11:41:07;;;;;;;5.10;1.20;;;;;;;6.51;75.77;99688.16;104469;1323;60330;-78
2021/12/05 11:43:46;;;;;;;2.10;0.90;;;;;;;6.52;75.87;99693.13;103922;1323;75950;-78
2021/12/05 11:46:21;;;;;;;4.90;1.40;;;;;;;6.52;75.58;99696.33;104326;1321;72678;-78
2021/12/05 11:48:56;;;;;;;7.80;1.40;;;;;;;6.54;75.96;99694.51;104008;1325;73026;-78
2021/12/05 11:51:31;;;;;;;7.00;1.40;;;;;;;6.56;75.83;99692.88;104513;1324;62001;-76
2021/12/05 11:54:11;;;;;;;3.30;1.30;;;;;;;6.58;75.63;99700.44;104541;1324;60694;-78
2021/12/05 11:56:55;;;;;;;3.30;1.00;;;;;;;6.59;74.89;99699.19;104032;1324;74956;-76
2021/12/05 11:59:27;;;;;;;6.20;1.80;;;;;;;6.58;74.55;99698.54;103801;1324;71659;-75
2021/12/05 12:02:25;;;;;;;6.00;1.60;;;;;;;6.55;74.00;99704.13;103574;1330;75273;-79
2021/12/05 12:05:04;;;;;;;3.40;1.00;;;;;;;6.53;74.95;99704.06;103468;1329;60064;-79
2021/12/05 12:07:39;;;;;;;5.20;1.30;;;;;;;6.53;74.76;99705.31;104381;1323;60620;-77
2021/12/05 12:10:13;;;;;;;;;;;;;;;6.56;74.71;99704.58;104365;1324;75036;-77
2021/12/05 12:12:44;;;;;;;3.70;1.40;;;;;;;6.49;74.06;99701.31;104515;1319;72273;-77
2021/12/05 12:15:14;;;;;;;7.50;1.70;;;;;;;6.46;74.24;99701.40;104047;1324;73788;-77
2021/12/05 12:17:45;;;;;;;3.50;0.80;;;;;;;6.44;74.52;99702.00;104530;1323;61365;-77
2021/12/05 12:20:19;;;;;;;;;;;;;;;6.44;75.15;99703.71;104429;1324;61141;-80
2021/12/05 12:22:45;;;;;;;3.30;1.10;;;;;;;6.45;75.32;99707.75;103441;1336;76147;-81
2021/12/05 12:25:23;;;;;;;5.50;1.40;;;;;;;6.47;75.41;99707.73;104352;1324;71493;-80
2021/12/05 12:27:50;;;;;;;7.10;1.80;;;;;;;6.46;75.36;99711.21;104480;1321;72885;-79
2021/12/05 12:30:24;;;;;;;5.60;1.60;;;;;;;6.45;75.37;99717.50;104285;1324;60845;-76
2021/12/05 12:33:26;;;;;;;6.80;1.40;;;;;;;6.42;75.22;99715.46;104515;1324;59487;-80
2021/12/05 12:35:53;;;;;;;3.30;1.20;;;;;;;6.40;75.68;99712.23;104568;1323;75022;-79
2021/12/05 12:38:23;;;;;;;5.00;1.20;;;;;;;6.37;75.30;99716.29;103810;1319;71184;-79
2021/12/05 12:40:54;;;;;;;3.80;1.40;;;;;;;6.31;74.74;99715.68;104563;1324;72937;-81
2021/12/05 12:43:26;;;;;;;7.10;1.70;;;;;;;6.29;75.28;99717.29;104502;1322;63131;-77
2021/12/05 12:45:53;;;;;;;4.30;1.40;;;;;;;6.30;75.42;99718.86;104512;1323;60614;-76
2021/12/05 12:48:26;;;;;;;6.60;1.10;;;;;;;6.29;75.16;99719.58;103871;1323;75996;-79
2021/12/05 12:50:53;;;;;;;5.50;1.50;;;;;;;6.29;75.58;99719.08;103292;1341;74130;-81
2021/12/05 12:53:27;;;;;;;10.90;1.50;;;;;;;6.30;76.02;99721.13;104479;1325;73994;-82
2021/12/05 12:56:00;;;;;;;2.90;1.20;;;;;;;6.28;75.20;99723.90;104226;1327;60571;-78
2021/12/05 12:58:55;;;;;;;10.60;1.60;;;;;;;6.25;75.42;99725.20;104482;1323;59839;-81
2021/12/05 13:10:45;;;;;;;6.70;1.60;;;;;;;6.19;74.96;99724.59;104455;1324;59650;-81
2021/12/05 13:13:26;;;;;;;7.10;1.50;;;;;;;6.24;75.19;99726.16;104425;1323;60299;-81
2021/12/05 13:16:15;;;;;;;5.30;1.20;;;;;;;6.26;74.37;99724.17;104488;1320;74729;-80
2021/12/05 13:18:45;;;;;;;3.40;0.90;;;;;;;6.24;74.17;99724.61;104442;1323;72206;-80
2021/12/05 13:21:35;;;;;;;3.10;0.70;;;;;;;6.24;74.11;99728.83;104523;1322;72929;-80
2021/12/05 13:24:32;;;;;;;5.00;1.00;;;;;;;6.27;74.34;99732.33;104515;1323;62307;-77
2021/12/05 13:27:03;;;;;;;8.10;1.50;;;;;;;6.30;74.77;99736.70;104466;1323;60669;-81
2021/12/05 13:29:36;;;;;;;2.40;0.90;;;;;;;6.35;74.81;99739.70;104514;1323;74764;-81
2021/12/05 13:32:12;;;;;;;4.10;1.10;;;;;;;6.38;74.20;99740.06;104310;1324;70422;-81
2021/12/05 13:34:41;;;;;;;3.20;1.50;;;;;;;6.40;74.05;99743.67;104539;1323;72958;-81
2021/12/05 13:37:13;;;;;;;5.00;1.10;;;;;;;6.42;74.12;99749.98;104522;1323;61059;-79
2021/12/05 13:39:46;;;;;;;7.70;1.10;;;;;;;6.45;74.40;99749.48;104521;1323;60297;-79
2021/12/05 13:42:26;;;;;;;5.90;1.10;;;;;;;6.47;74.42;99752.41;104544;1323;76080;-79
2021/12/05 13:44:58;;;;;;;4.00;1.00;;;;;;;6.49;74.18;99756.05;104495;1322;72444;-81
2021/12/05 13:47:37;;;;;;;3.80;1.60;;;;;;;6.48;74.17;99757.54;104393;1324;73098;-79
2021/12/05 13:50:18;;;;;;;5.70;1.50;;;;;;;6.48;74.47;99761.52;104391;1324;59182;-77
2021/12/05 13:52:52;;;;;;;4.00;1.00;;;;;;;6.49;74.55;99768.43;104449;1324;60344;-77
2021/12/05 13:55:45;;;;;;;6.60;1.10;;;;;;;6.49;74.68;99770.77;104486;1322;74945;-78
2021/12/05 13:58:38;;;;;;;16.60;1.30;;;;;;;6.49;73.91;99771.27;103746;1324;71401;-77
2021/12/05 14:01:04;;;;;;;2.90;1.00;;;;;;;6.48;73.96;99774.37;104475;1324;72094;-81
2021/12/05 14:03:47;;;;;;;3.90;1.10;;;;;;;6.51;74.19;99779.86;104460;1324;60605;-79
2021/12/05 14:06:36;;;;;;;6.50;1.30;;;;;;;6.51;73.91;99780.67;104444;1322;61463;-78
2021/12/05 14:09:11;;;;;;;6.00;1.40;;;;;;;6.55;73.97;99787.71;104417;1321;76141;-78
2021/12/05 14:11:48;;;;;;;3.80;1.30;;;;;;;6.64;74.06;99791.48;104112;1324;72867;-78
2021/12/05 14:14:19;;;;;;;4.20;1.40;;;;;;;6.78;73.79;99795.45;104444;1324;74013;-81
2021/12/05 14:16:48;;;;;;;4.00;1.60;;;;;;;6.94;73.66;99799.84;104241;1328;59846;-81
2021/12/05 14:19:23;;;;;;;4.50;1.50;;;;;;;7.09;73.37;99803.30;104501;1325;61477;-78
2021/12/05 14:21:54;;;;;;;6.90;1.80;;;;;;;7.11;73.10;99804.06;104263;1328;73927;-78
2021/12/05 14:24:24;;;;;;;3.30;1.60;;;;;;;7.09;72.61;99806.10;104351;1327;71470;-77
2021/12/05 14:26:54;;;;;;;5.90;2.70;;;;;;;7.03;72.66;99808.05;103790;1332;72502;-78
2021/12/05 14:29:23;;;;;;;8.20;1.90;;;;;;;6.95;72.88;99813.05;104512;1322;61557;-80
2021/12/05 14:32:04;;;;;;;4.10;1.50;;;;;;;6.90;72.94;99813.36;104440;1324;60629;-80
2021/12/05 14:34:31;;;;;;;5.30;1.60;;;;;;;6.92;72.78;99817.02;104523;1322;75070;-81
2021/12/05 14:37:02;;;;;;;7.30;1.60;;;;;;;6.94;73.03;99822.68;104676;1314;71555;-80
2021/12/05 14:39:31;;;;;;;2.80;1.10;;;;;;;6.87;72.70;99820.96;104884;1321;73115;-77
2021/12/05 14:42:04;;;;;;;5.30;1.50;;;;;;;6.75;72.56;99828.31;104541;1321;61158;-81
2021/12/05 14:44:32;;;;;;;4.20;1.20;;;;;;;6.60;72.82;99831.06;103771;1324;61882;-81
2021/12/05 14:47:12;;;;;;;3.20;1.60;;;;;;;6.44;73.30;99836.52;103553;1328;76083;-81
2021/12/05 14:49:49;;;;;;;2.90;1.20;;;;;;;6.28;73.55;99839.30;104620;1326;72424;-81
2021/12/05 14:52:21;;;;;;;4.50;1.20;;;;;;;6.12;74.28;99838.27;104843;1322;73994;-81
2021/12/05 14:54:48;;;;;;;8.30;2.30;;;;;;;5.98;74.66;99844.45;104859;1321;61161;-80
2021/12/05 14:57:27;;;;;;;5.30;2.00;;;;;;;5.87;75.22;99844.78;104699;1321;60840;-79
2021/12/05 15:00:12;;;;;;;9.80;2.40;;;;;;;5.75;75.58;99852.14;104751;1322;75644;-77
2021/12/05 15:02:40;;;;;;;4.80;2.30;;;;;;;5.62;75.76;99860.70;104502;1311;71897;-80
2021/12/05 15:05:14;;;;;;;9.20;2.40;;;;;;;5.51;76.40;99864.03;104500;1323;72919;-77
2021/12/05 15:07:43;;;;;;;6.20;3.10;;;;;;;5.41;76.69;99870.30;104508;1326;60578;-77
2021/12/05 15:10:11;;;;;;;8.80;3.00;;;;;;;5.32;76.92;99874.27;103601;1330;60504;-77
2021/12/05 15:12:38;;;;;;;12.10;5.30;;;;;;;5.22;77.76;99878.81;104441;1327;75078;-78
2021/12/05 15:15:09;;;;;;;12.10;4.90;;;;;;;5.13;77.91;99884.10;104421;1323;59252;-80
2021/12/05 15:17:40;;;;;;;10.00;4.10;;;;;;;5.06;78.24;99891.05;104472;1327;74077;-81
2021/12/05 15:20:12;;;;;;;11.10;4.00;;;;;;;4.96;78.88;99897.29;104511;1324;60944;-80
2021/12/05 15:22:41;;;;;;;10.00;3.90;;;;;;;4.84;79.11;99900.64;103621;1330;60641;-82
2021/12/05 15:25:12;;;;;;;9.90;4.50;;;;;;;4.72;79.23;99905.86;104522;1323;75993;-79
2021/12/05 15:27:39;;;;;;;9.20;5.00;;;;;;;4.61;80.12;99906.48;104369;1330;71418;-81
2021/12/05 15:30:20;;;;;;;10.00;4.70;;;;;;;4.51;80.37;99911.70;104471;1323;72990;-81
2021/12/05 15:32:53;;;;;;;21.00;9.20;;;;;;;4.41;80.76;99918.27;104518;1323;62282;-82
2021/12/05 15:35:21;;;;;;;11.80;5.20;;;;;;;4.30;80.76;99916.36;104495;1325;60682;-80
2021/12/05 15:37:56;;;;;;;14.10;5.10;;;;;;;4.20;81.15;99915.85;104057;1323;74645;-80
2021/12/05 15:40:24;;;;;;;10.50;5.10;;;;;;;4.12;81.78;99920.68;104531;1323;72498;-83
2021/12/05 15:42:56;;;;;;;8.10;4.10;;;;;;;4.03;81.90;99929.90;103991;1323;438701;-77
2021/12/05 15:45:23;;;;;;;9.30;5.70;;;;;;;3.92;82.37;99937.15;104219;1328;59146;-77
2021/12/05 15:47:49;;;;;;;10.40;5.50;;;;;;;3.81;82.92;99940.00;104621;1328;60375;-77
2021/12/05 15:50:22;;;;;;;7.70;4.30;;;;;;;3.71;83.37;99942.16;104639;1323;75546;-77
2021/12/05 15:52:56;;;;;;;12.20;5.60;;;;;;;3.61;83.83;99942.04;104693;1328;71565;-81
2021/12/05 15:55:26;;;;;;;15.80;5.50;;;;;;;3.52;84.08;99939.80;104595;1323;74178;-81
2021/12/05 15:58:08;;;;;;;13.50;5.30;;;;;;;3.44;84.59;99945.45;104558;1328;62334;-81
2021/12/05 16:00:41;;;;;;;14.80;5.50;;;;;;;3.34;84.76;99950.27;104395;1327;60428;-82
2021/12/05 16:03:17;;;;;;;12.10;5.30;;;;;;;3.21;84.83;99958.58;104518;1325;73432;-81
2021/12/05 16:05:51;;;;;;;10.50;5.50;;;;;;;3.09;85.03;99962.25;104423;1330;71441;-80
2021/12/05 16:08:17;;;;;;;11.30;5.40;;;;;;;2.97;85.40;99967.37;104458;1328;72972;-80
2021/12/05 16:10:47;;;;;;;12.00;5.40;;;;;;;2.87;85.91;99968.84;104157;1324;62340;-82
2021/12/05 16:13:19;;;;;;;7.80;4.10;;;;;;;2.78;86.13;99973.30;104644;1327;61430;-82
2021/12/05 16:15:48;;;;;;;9.70;5.50;;;;;;;2.70;86.95;99972.62;104441;1323;75060;-79
2021/12/05 16:18:16;;;;;;;9.80;4.80;;;;;;;2.63;87.14;99979.02;104462;1324;71453;-78
2021/12/05 16:20:47;;;;;;;15.10;4.50;;;;;;;2.55;86.99;99982.42;104493;1331;72969;-76
2021/12/05 16:23:27;;;;;;;12.70;6.80;;;;;;;2.46;87.32;99986.74;104395;1326;59704;-77
2021/12/05 16:26:13;;;;;;;14.50;4.80;;;;;;;2.37;87.77;99988.77;104596;1326;59632;-81
2021/12/05 16:28:49;;;;;;;11.50;4.60;;;;;;;2.29;88.07;99986.52;104530;1327;74989;-81
2021/12/05 16:31:33;;;;;;;7.70;4.70;;;;;;;2.22;88.20;99985.59;104517;1327;72506;-78
2021/12/05 16:34:06;;;;;;;13.30;4.80;;;;;;;2.17;88.94;99987.79;104575;1327;74297;-78
2021/12/05 16:36:48;;;;;;;11.70;5.60;;;;;;;2.12;89.21;99996.27;103548;1338;61810;-81
2021/12/05 16:39:18;;;;;;;10.20;5.10;;;;;;;2.07;89.39;100000.89;104572;1330;60596;-76
2021/12/05 16:41:54;;;;;;;12.40;6.40;;;;;;;2.07;90.07;100009.27;104563;1328;74996;-77
2021/12/05 16:44:24;;;;;;;13.20;6.10;;;;;;;2.12;90.16;100008.80;104330;1328;71670;-77
2021/12/05 16:46:57;;;;;;;11.50;6.00;;;;;;;2.14;90.06;100011.63;104533;1322;72709;-77
2021/12/05 16:49:25;;;;;;;15.00;6.20;;;;;;;2.16;90.47;100010.75;104509;1327;61366;-76
2021/12/05 16:51:54;;;;;;;9.10;4.80;;;;;;;2.17;90.45;100012.87;104336;1330;60620;-76
2021/12/05 16:54:28;;;;;;;10.60;5.40;;;;;;;2.13;89.88;100015.71;104552;1328;74934;-76
2021/12/05 16:57:21;;;;;;;8.30;4.40;;;;;;;2.08;90.23;100016.84;104551;1327;70613;-76
2021/12/05 16:59:51;;;;;;;11.90;6.40;;;;;;;2.09;90.72;100019.52;104130;1324;74088;-76